sensor_id;sensor_type;location;lat;lon;timestamp;pressure;altitude;pressure_sealevel;temperature;humidity
39681;BME280;26327;42.550;23.120;2023-05-21T00:01:03;92685.38;;;14.80;93.25
39681;BME280;26327;42.550;23.120;2023-05-21T00:03:31;92674.16;;;14.73;92.45
39681;BME280;26327;42.550;23.120;2023-05-21T00:05:57;92660.69;;;14.69;92.25
39681;BME280;26327;42.550;23.120;2023-05-21T00:08:25;92673.16;;;14.67;92.33
39681;BME280;26327;42.550;23.120;2023-05-21T00:10:52;92529.84;;;13.62;93.44
39681;BME280;26327;42.550;23.120;2023-05-21T00:13:17;92675.38;;;14.70;92.36
39681;BME280;26327;42.550;23.120;2023-05-21T00:15:43;92653.59;;;14.32;93.76
39681;BME280;26327;42.550;23.120;2023-05-21T00:18:08;92649.78;;;14.28;94.36
39681;BME280;26327;42.550;23.120;2023-05-21T00:20:34;92630.53;;;14.09;94.67
39681;BME280;26327;42.550;23.120;2023-05-21T00:23:01;92657.44;;;14.23;94.28
39681;BME280;26327;42.550;23.120;2023-05-21T00:25:27;92582.66;;;13.64;94.68
39681;BME280;26327;42.550;23.120;2023-05-21T00:27:53;92514.28;;;13.15;94.49
39681;BME280;26327;42.550;23.120;2023-05-21T00:30:19;92594.28;;;13.68;94.90
39681;BME280;26327;42.550;23.120;2023-05-21T00:32:44;92639.50;;;13.75;95.60
39681;BME280;26327;42.550;23.120;2023-05-21T00:35:09;92510.31;;;12.93;95.74
39681;BME280;26327;42.550;23.120;2023-05-21T00:37:35;92656.09;;;13.94;95.58
39681;BME280;26327;42.550;23.120;2023-05-21T00:40:00;92509.50;;;12.92;96.04
39681;BME280;26327;42.550;23.120;2023-05-21T00:42:26;92629.44;;;13.78;95.79
39681;BME280;26327;42.550;23.120;2023-05-21T00:44:54;92627.81;;;13.84;95.54
39681;BME280;26327;42.550;23.120;2023-05-21T00:47:20;92632.63;;;13.87;94.46
39681;BME280;26327;42.550;23.120;2023-05-21T00:49:46;92540.16;;;13.43;93.08
39681;BME280;26327;42.550;23.120;2023-05-21T00:52:13;92594.94;;;13.57;94.29
39681;BME280;26327;42.550;23.120;2023-05-21T00:54:39;92565.28;;;13.18;95.71
39681;BME280;26327;42.550;23.120;2023-05-21T00:57:05;92616.25;;;13.40;98.05
39681;BME280;26327;42.550;23.120;2023-05-21T00:59:31;92573.47;;;13.41;94.80
39681;BME280;26327;42.550;23.120;2023-05-21T01:01:57;92470.00;;;12.76;94.78
39681;BME280;26327;42.550;23.120;2023-05-21T01:04:29;92546.03;;;13.26;95.21
39681;BME280;26327;42.550;23.120;2023-05-21T01:06:55;92526.50;;;13.15;95.08
39681;BME280;26327;42.550;23.120;2023-05-21T01:09:23;92591.53;;;13.43;95.94
39681;BME280;26327;42.550;23.120;2023-05-21T01:11:50;92533.16;;;13.37;94.61
39681;BME280;26327;42.550;23.120;2023-05-21T01:14:17;92602.28;;;13.86;94.76
39681;BME280;26327;42.550;23.120;2023-05-21T01:16:45;92621.69;;;14.10;94.65
39681;BME280;26327;42.550;23.120;2023-05-21T01:19:17;92538.72;;;13.47;94.76
39681;BME280;26327;42.550;23.120;2023-05-21T01:21:50;92612.09;;;13.97;95.16
39681;BME280;26327;42.550;23.120;2023-05-21T01:24:17;92609.44;;;14.10;94.65
39681;BME280;26327;42.550;23.120;2023-05-21T01:26:43;92604.78;;;14.19;93.84
39681;BME280;26327;42.550;23.120;2023-05-21T01:29:11;92612.69;;;13.99;95.52
39681;BME280;26327;42.550;23.120;2023-05-21T01:34:10;92620.09;;;14.09;95.89
39681;BME280;26327;42.550;23.120;2023-05-21T01:36:41;92599.56;;;14.12;94.56
39681;BME280;26327;42.550;23.120;2023-05-21T01:39:35;92609.56;;;14.29;93.41
39681;BME280;26327;42.550;23.120;2023-05-21T01:42:05;92580.56;;;13.92;94.20
39681;BME280;26327;42.550;23.120;2023-05-21T01:44:33;92517.63;;;13.55;93.96
39681;BME280;26327;42.550;23.120;2023-05-21T01:47:01;92511.41;;;13.57;93.86
39681;BME280;26327;42.550;23.120;2023-05-21T01:49:28;92510.00;;;13.54;93.70
39681;BME280;26327;42.550;23.120;2023-05-21T01:51:53;92602.00;;;14.07;93.35
39681;BME280;26327;42.550;23.120;2023-05-21T01:54:19;92511.84;;;13.40;94.21
39681;BME280;26327;42.550;23.120;2023-05-21T01:56:46;92573.94;;;13.90;93.34
39681;BME280;26327;42.550;23.120;2023-05-21T01:59:12;92577.38;;;13.90;92.94
39681;BME280;26327;42.550;23.120;2023-05-21T02:01:37;92601.28;;;13.87;93.73
39681;BME280;26327;42.550;23.120;2023-05-21T02:04:03;92602.78;;;14.21;91.48
39681;BME280;26327;42.550;23.120;2023-05-21T02:06:28;92563.56;;;13.76;93.10
39681;BME280;26327;42.550;23.120;2023-05-21T02:08:55;92520.69;;;13.39;94.45
39681;BME280;26327;42.550;23.120;2023-05-21T02:11:21;92510.66;;;13.16;95.49
39681;BME280;26327;42.550;23.120;2023-05-21T02:13:47;92506.84;;;13.12;96.02
39681;BME280;26327;42.550;23.120;2023-05-21T02:16:13;92589.41;;;13.91;94.17
39681;BME280;26327;42.550;23.120;2023-05-21T02:18:40;92519.91;;;13.19;95.66
39681;BME280;26327;42.550;23.120;2023-05-21T02:21:09;92575.28;;;13.47;96.31
39681;BME280;26327;42.550;23.120;2023-05-21T02:23:38;92589.28;;;13.66;96.31
39681;BME280;26327;42.550;23.120;2023-05-21T02:26:03;92576.41;;;13.71;95.56
39681;BME280;26327;42.550;23.120;2023-05-21T02:28:29;92604.22;;;14.04;94.01
39681;BME280;26327;42.550;23.120;2023-05-21T02:30:55;92559.19;;;13.57;95.58
39681;BME280;26327;42.550;23.120;2023-05-21T02:33:20;92536.59;;;13.25;96.54
39681;BME280;26327;42.550;23.120;2023-05-21T02:35:46;92586.28;;;13.63;96.49
39681;BME280;26327;42.550;23.120;2023-05-21T02:38:12;92587.84;;;13.70;96.28
39681;BME280;26327;42.550;23.120;2023-05-21T02:40:38;92586.03;;;13.84;94.12
39681;BME280;26327;42.550;23.120;2023-05-21T02:43:03;92589.09;;;13.61;95.28
39681;BME280;26327;42.550;23.120;2023-05-21T02:45:29;92587.72;;;13.52;96.49
39681;BME280;26327;42.550;23.120;2023-05-21T02:47:54;92567.19;;;13.62;95.44
39681;BME280;26327;42.550;23.120;2023-05-21T02:50:20;92518.31;;;13.25;95.94
39681;BME280;26327;42.550;23.120;2023-05-21T02:52:47;92483.00;;;13.02;96.18
39681;BME280;26327;42.550;23.120;2023-05-21T02:55:12;92557.03;;;13.41;96.94
39681;BME280;26327;42.550;23.120;2023-05-21T02:57:37;92511.28;;;13.32;96.17
39681;BME280;26327;42.550;23.120;2023-05-21T03:00:03;92576.25;;;13.60;96.16
39681;BME280;26327;42.550;23.120;2023-05-21T03:02:30;92574.25;;;13.55;96.98
39681;BME280;26327;42.550;23.120;2023-05-21T03:04:56;92491.22;;;13.06;96.73
39681;BME280;26327;42.550;23.120;2023-05-21T03:07:21;92588.09;;;13.62;97.27
39681;BME280;26327;42.550;23.120;2023-05-21T03:09:48;92491.03;;;13.01;97.46
39681;BME280;26327;42.550;23.120;2023-05-21T03:12:13;92580.09;;;13.50;97.32
39681;BME280;26327;42.550;23.120;2023-05-21T03:14:39;92561.25;;;13.35;96.44
39681;BME280;26327;42.550;23.120;2023-05-21T03:17:06;92512.69;;;13.08;95.60
39681;BME280;26327;42.550;23.120;2023-05-21T03:19:32;92583.25;;;13.72;95.25
39681;BME280;26327;42.550;23.120;2023-05-21T03:22:02;92602.72;;;13.76;95.50
39681;BME280;26327;42.550;23.120;2023-05-21T03:24:28;92508.03;;;13.43;93.83
39681;BME280;26327;42.550;23.120;2023-05-21T03:26:55;92502.69;;;13.25;95.28
39681;BME280;26327;42.550;23.120;2023-05-21T03:29:20;92581.69;;;13.51;96.85
39681;BME280;26327;42.550;23.120;2023-05-21T03:31:46;92576.66;;;13.57;96.58
39681;BME280;26327;42.550;23.120;2023-05-21T03:34:11;92557.22;;;13.13;97.71
39681;BME280;26327;42.550;23.120;2023-05-21T03:36:36;92511.13;;;12.87;98.06
39681;BME280;26327;42.550;23.120;2023-05-21T03:39:02;92588.31;;;13.14;100.00
39681;BME280;26327;42.550;23.120;2023-05-21T03:41:28;92521.72;;;12.72;100.00
39681;BME280;26327;42.550;23.120;2023-05-21T03:43:54;92579.31;;;13.23;100.00
39681;BME280;26327;42.550;23.120;2023-05-21T03:46:19;92535.56;;;12.99;100.00
39681;BME280;26327;42.550;23.120;2023-05-21T03:48:45;92541.97;;;13.23;100.00
39681;BME280;26327;42.550;23.120;2023-05-21T03:51:10;92567.66;;;13.39;100.00
39681;BME280;26327;42.550;23.120;2023-05-21T03:53:37;92551.03;;;13.34;99.66
39681;BME280;26327;42.550;23.120;2023-05-21T03:56:02;92493.84;;;13.06;98.98
39681;BME280;26327;42.550;23.120;2023-05-21T03:58:29;92438.72;;;12.76;99.19
39681;BME280;26327;42.550;23.120;2023-05-21T04:00:54;92516.69;;;13.23;98.95
39681;BME280;26327;42.550;23.120;2023-05-21T04:03:20;92606.94;;;13.71;99.57
39681;BME280;26327;42.550;23.120;2023-05-21T04:05:45;92513.91;;;13.18;99.61
39681;BME280;26327;42.550;23.120;2023-05-21T04:08:11;92599.09;;;13.71;100.00
39681;BME280;26327;42.550;23.120;2023-05-21T04:10:36;92588.97;;;14.01;100.00
39681;BME280;26327;42.550;23.120;2023-05-21T04:13:02;92571.50;;;14.01;100.00
39681;BME280;26327;42.550;23.120;2023-05-21T04:15:27;92568.41;;;14.17;100.00
39681;BME280;26327;42.550;23.120;2023-05-21T04:17:53;92601.44;;;14.50;99.23
39681;BME280;26327;42.550;23.120;2023-05-21T04:20:19;92575.63;;;14.67;98.22
39681;BME280;26327;42.550;23.120;2023-05-21T04:22:44;92543.97;;;14.75;97.62
39681;BME280;26327;42.550;23.120;2023-05-21T04:25:10;92549.88;;;15.57;94.02
39681;BME280;26327;42.550;23.120;2023-05-21T04:27:36;92581.72;;;16.15;90.56
39681;BME280;26327;42.550;23.120;2023-05-21T04:30:02;92535.69;;;15.71;90.59
39681;BME280;26327;42.550;23.120;2023-05-21T04:32:28;92494.47;;;15.60;88.69
39681;BME280;26327;42.550;23.120;2023-05-21T04:34:55;92598.63;;;16.19;88.56
39681;BME280;26327;42.550;23.120;2023-05-21T04:37:20;92587.75;;;16.34;86.77
39681;BME280;26327;42.550;23.120;2023-05-21T04:39:48;92521.16;;;16.05;85.17
39681;BME280;26327;42.550;23.120;2023-05-21T04:42:14;92568.69;;;16.27;86.27
39681;BME280;26327;42.550;23.120;2023-05-21T04:44:39;92586.53;;;16.48;86.22
39681;BME280;26327;42.550;23.120;2023-05-21T04:47:05;92583.69;;;16.68;85.03
39681;BME280;26327;42.550;23.120;2023-05-21T04:49:32;92580.69;;;16.34;85.62
39681;BME280;26327;42.550;23.120;2023-05-21T04:51:59;92497.06;;;15.66;85.85
39681;BME280;26327;42.550;23.120;2023-05-21T04:54:25;92554.56;;;16.28;85.55
39681;BME280;26327;42.550;23.120;2023-05-21T04:56:50;92582.38;;;16.59;84.42
39681;BME280;26327;42.550;23.120;2023-05-21T04:59:15;92525.59;;;16.23;82.00
39681;BME280;26327;42.550;23.120;2023-05-21T05:01:41;92590.72;;;16.56;82.91
39681;BME280;26327;42.550;23.120;2023-05-21T05:04:08;92565.91;;;16.70;81.84
39681;BME280;26327;42.550;23.120;2023-05-21T05:06:33;92574.72;;;16.76;83.73
39681;BME280;26327;42.550;23.120;2023-05-21T05:08:59;92558.88;;;16.94;82.08
39681;BME280;26327;42.550;23.120;2023-05-21T05:11:24;92475.56;;;16.66;80.36
39681;BME280;26327;42.550;23.120;2023-05-21T05:13:51;92486.56;;;17.10;73.30
39681;BME280;26327;42.550;23.120;2023-05-21T05:16:16;92558.16;;;17.52;70.94
39681;BME280;26327;42.550;23.120;2023-05-21T05:18:49;92591.13;;;17.36;75.03
39681;BME280;26327;42.550;23.120;2023-05-21T05:21:15;92551.41;;;17.09;77.51
39681;BME280;26327;42.550;23.120;2023-05-21T05:23:41;92473.38;;;16.63;77.40
39681;BME280;26327;42.550;23.120;2023-05-21T05:26:06;92555.75;;;17.15;74.96
39681;BME280;26327;42.550;23.120;2023-05-21T05:28:31;92476.84;;;16.87;75.00
39681;BME280;26327;42.550;23.120;2023-05-21T05:30:57;92566.47;;;17.25;69.14
39681;BME280;26327;42.550;23.120;2023-05-21T05:33:22;92567.97;;;16.68;73.38
39681;BME280;26327;42.550;23.120;2023-05-21T05:35:48;92503.66;;;16.89;71.85
39681;BME280;26327;42.550;23.120;2023-05-21T05:38:13;92499.66;;;16.75;74.32
39681;BME280;26327;42.550;23.120;2023-05-21T05:40:39;92548.44;;;17.17;75.24
39681;BME280;26327;42.550;23.120;2023-05-21T05:43:05;92518.94;;;16.92;76.49
39681;BME280;26327;42.550;23.120;2023-05-21T05:45:31;92480.38;;;16.39;75.59
39681;BME280;26327;42.550;23.120;2023-05-21T05:47:56;92467.72;;;16.78;70.54
39681;BME280;26327;42.550;23.120;2023-05-21T05:50:21;92475.47;;;16.96;67.08
39681;BME280;26327;42.550;23.120;2023-05-21T05:52:47;92515.88;;;17.42;64.15
39681;BME280;26327;42.550;23.120;2023-05-21T05:55:12;92443.66;;;17.16;63.96
39681;BME280;26327;42.550;23.120;2023-05-21T05:57:38;92467.84;;;17.29;63.62
39681;BME280;26327;42.550;23.120;2023-05-21T06:00:04;92485.84;;;17.49;64.86
39681;BME280;26327;42.550;23.120;2023-05-21T06:02:29;92488.00;;;17.64;63.95
39681;BME280;26327;42.550;23.120;2023-05-21T06:04:55;92490.78;;;17.69;62.40
39681;BME280;26327;42.550;23.120;2023-05-21T06:07:20;92488.81;;;17.65;60.42
39681;BME280;26327;42.550;23.120;2023-05-21T06:09:45;92527.72;;;17.91;60.37
39681;BME280;26327;42.550;23.120;2023-05-21T06:12:11;92514.34;;;17.92;60.63
39681;BME280;26327;42.550;23.120;2023-05-21T06:14:40;92547.94;;;18.42;56.82
39681;BME280;26327;42.550;23.120;2023-05-21T06:17:05;92520.00;;;18.24;58.25
39681;BME280;26327;42.550;23.120;2023-05-21T06:19:31;92466.78;;;18.06;56.45
39681;BME280;26327;42.550;23.120;2023-05-21T06:21:56;92544.69;;;18.64;58.16
39681;BME280;26327;42.550;23.120;2023-05-21T06:24:21;92539.16;;;18.94;55.84
39681;BME280;26327;42.550;23.120;2023-05-21T06:26:47;92541.84;;;18.53;58.04
39681;BME280;26327;42.550;23.120;2023-05-21T06:29:12;92532.91;;;18.26;61.09
39681;BME280;26327;42.550;23.120;2023-05-21T06:31:38;92540.31;;;18.29;62.36
39681;BME280;26327;42.550;23.120;2023-05-21T06:34:03;92443.25;;;17.71;61.33
39681;BME280;26327;42.550;23.120;2023-05-21T06:36:28;92461.38;;;17.84;60.39
39681;BME280;26327;42.550;23.120;2023-05-21T06:38:55;92468.19;;;18.25;57.71
39681;BME280;26327;42.550;23.120;2023-05-21T06:41:21;92513.06;;;18.47;59.84
39681;BME280;26327;42.550;23.120;2023-05-21T06:43:47;92494.63;;;18.18;61.53
39681;BME280;26327;42.550;23.120;2023-05-21T06:46:12;92468.97;;;18.09;61.00
39681;BME280;26327;42.550;23.120;2023-05-21T06:48:37;92469.75;;;18.09;59.19
39681;BME280;26327;42.550;23.120;2023-05-21T06:51:03;92541.19;;;18.92;56.76
39681;BME280;26327;42.550;23.120;2023-05-21T06:53:28;92466.81;;;18.51;56.44
39681;BME280;26327;42.550;23.120;2023-05-21T06:55:54;92473.88;;;18.34;56.84
39681;BME280;26327;42.550;23.120;2023-05-21T06:58:19;92528.59;;;18.48;57.90
39681;BME280;26327;42.550;23.120;2023-05-21T07:00:46;92525.19;;;18.48;58.32
39681;BME280;26327;42.550;23.120;2023-05-21T07:03:11;92519.03;;;18.87;56.15
39681;BME280;26327;42.550;23.120;2023-05-21T07:05:37;92518.56;;;19.41;54.25
39681;BME280;26327;42.550;23.120;2023-05-21T07:08:02;92519.00;;;19.71;52.23
39681;BME280;26327;42.550;23.120;2023-05-21T07:10:27;92458.75;;;19.03;53.49
39681;BME280;26327;42.550;23.120;2023-05-21T07:12:53;92413.00;;;18.59;55.24
39681;BME280;26327;42.550;23.120;2023-05-21T07:15:18;92513.94;;;19.48;54.68
39681;BME280;26327;42.550;23.120;2023-05-21T07:17:43;92531.25;;;19.61;53.56
39681;BME280;26327;42.550;23.120;2023-05-21T07:20:10;92482.81;;;19.28;55.13
39681;BME280;26327;42.550;23.120;2023-05-21T07:22:38;92521.94;;;19.75;54.96
39681;BME280;26327;42.550;23.120;2023-05-21T07:25:05;92529.41;;;20.00;51.47
39681;BME280;26327;42.550;23.120;2023-05-21T07:27:30;92528.00;;;20.36;49.59
39681;BME280;26327;42.550;23.120;2023-05-21T07:29:56;92534.38;;;20.89;47.90
39681;BME280;26327;42.550;23.120;2023-05-21T07:32:21;92525.81;;;21.35;45.57
39681;BME280;26327;42.550;23.120;2023-05-21T07:34:47;92509.41;;;21.76;45.13
39681;BME280;26327;42.550;23.120;2023-05-21T07:37:12;92465.63;;;22.00;46.19
39681;BME280;26327;42.550;23.120;2023-05-21T07:39:38;92481.25;;;23.10;41.37
39681;BME280;26327;42.550;23.120;2023-05-21T07:42:04;92537.13;;;24.05;40.72
39681;BME280;26327;42.550;23.120;2023-05-21T07:44:30;92536.88;;;23.96;39.85
39681;BME280;26327;42.550;23.120;2023-05-21T07:46:56;92488.53;;;24.14;38.50
39681;BME280;26327;42.550;23.120;2023-05-21T07:49:21;92545.66;;;24.71;38.62
39681;BME280;26327;42.550;23.120;2023-05-21T07:51:47;92557.00;;;24.07;40.80
39681;BME280;26327;42.550;23.120;2023-05-21T07:54:12;92544.88;;;23.76;40.50
39681;BME280;26327;42.550;23.120;2023-05-21T07:56:38;92532.44;;;23.56;39.67
39681;BME280;26327;42.550;23.120;2023-05-21T07:59:03;92544.84;;;23.05;40.45
39681;BME280;26327;42.550;23.120;2023-05-21T08:01:28;92492.06;;;22.78;41.74
39681;BME280;26327;42.550;23.120;2023-05-21T08:03:54;92566.84;;;23.10;40.98
39681;BME280;26327;42.550;23.120;2023-05-21T08:06:20;92542.25;;;22.32;40.38
39681;BME280;26327;42.550;23.120;2023-05-21T08:08:49;92522.16;;;22.36;38.04
39681;BME280;26327;42.550;23.120;2023-05-21T08:11:14;92508.31;;;22.19;37.95
39681;BME280;26327;42.550;23.120;2023-05-21T08:13:40;92531.50;;;22.64;39.57
39681;BME280;26327;42.550;23.120;2023-05-21T08:16:05;92555.69;;;22.83;40.38
39681;BME280;26327;42.550;23.120;2023-05-21T08:18:31;92550.81;;;22.59;38.84
39681;BME280;26327;42.550;23.120;2023-05-21T08:20:56;92487.91;;;22.09;35.71
39681;BME280;26327;42.550;23.120;2023-05-21T08:23:22;92495.28;;;21.60;37.14
39681;BME280;26327;42.550;23.120;2023-05-21T08:25:48;92542.75;;;21.77;39.33
39681;BME280;26327;42.550;23.120;2023-05-21T08:28:13;92568.63;;;21.75;40.58
39681;BME280;26327;42.550;23.120;2023-05-21T08:30:39;92569.44;;;21.38;41.83
39681;BME280;26327;42.550;23.120;2023-05-21T08:33:05;92551.19;;;21.36;41.33
39681;BME280;26327;42.550;23.120;2023-05-21T08:35:30;92572.91;;;21.17;39.64
39681;BME280;26327;42.550;23.120;2023-05-21T08:37:56;92503.97;;;20.59;40.83
39681;BME280;26327;42.550;23.120;2023-05-21T08:40:21;92507.41;;;20.60;41.58
39681;BME280;26327;42.550;23.120;2023-05-21T08:42:47;92572.84;;;20.58;40.94
39681;BME280;26327;42.550;23.120;2023-05-21T08:45:21;92534.25;;;20.08;41.72
39681;BME280;26327;42.550;23.120;2023-05-21T08:47:53;92598.44;;;20.35;40.63
39681;BME280;26327;42.550;23.120;2023-05-21T08:50:19;92597.34;;;19.76;41.64
39681;BME280;26327;42.550;23.120;2023-05-21T08:52:46;92579.44;;;19.95;40.86
39681;BME280;26327;42.550;23.120;2023-05-21T08:55:11;92584.78;;;20.00;41.64
39681;BME280;26327;42.550;23.120;2023-05-21T08:57:42;92615.41;;;20.01;43.53
39681;BME280;26327;42.550;23.120;2023-05-21T09:00:08;92606.16;;;19.65;44.78
39681;BME280;26327;42.550;23.120;2023-05-21T09:02:36;92533.22;;;19.37;44.68
39681;BME280;26327;42.550;23.120;2023-05-21T09:05:05;92605.75;;;19.73;45.73
39681;BME280;26327;42.550;23.120;2023-05-21T09:07:38;92601.97;;;19.86;45.07
39681;BME280;26327;42.550;23.120;2023-05-21T09:10:07;92597.84;;;19.73;46.31
39681;BME280;26327;42.550;23.120;2023-05-21T09:12:36;92557.19;;;19.52;46.29
39681;BME280;26327;42.550;23.120;2023-05-21T09:15:02;92526.22;;;19.59;46.72
39681;BME280;26327;42.550;23.120;2023-05-21T09:17:28;92578.47;;;19.84;46.79
39681;BME280;26327;42.550;23.120;2023-05-21T09:22:46;92596.97;;;19.67;47.69
39681;BME280;26327;42.550;23.120;2023-05-21T09:25:20;92526.72;;;19.39;46.73
39681;BME280;26327;42.550;23.120;2023-05-21T09:27:46;92572.97;;;19.86;45.91
39681;BME280;26327;42.550;23.120;2023-05-21T09:30:13;92518.88;;;19.61;45.38
39681;BME280;26327;42.550;23.120;2023-05-21T09:32:39;92596.94;;;20.01;46.10
39681;BME280;26327;42.550;23.120;2023-05-21T09:35:17;92525.50;;;19.86;42.35
39681;BME280;26327;42.550;23.120;2023-05-21T09:37:43;92538.91;;;20.01;43.02
39681;BME280;26327;42.550;23.120;2023-05-21T09:40:21;92483.69;;;19.72;44.78
39681;BME280;26327;42.550;23.120;2023-05-21T09:42:52;92544.31;;;20.11;44.62
39681;BME280;26327;42.550;23.120;2023-05-21T09:45:22;92533.47;;;19.69;43.29
39681;BME280;26327;42.550;23.120;2023-05-21T09:47:48;92591.66;;;20.01;41.71
39681;BME280;26327;42.550;23.120;2023-05-21T09:50:25;92588.53;;;20.26;41.29
39681;BME280;26327;42.550;23.120;2023-05-21T09:52:52;92586.19;;;20.29;41.67
39681;BME280;26327;42.550;23.120;2023-05-21T09:55:23;92508.81;;;19.58;42.25
39681;BME280;26327;42.550;23.120;2023-05-21T09:57:49;92600.78;;;19.93;41.16
39681;BME280;26327;42.550;23.120;2023-05-21T10:00:19;92541.56;;;19.62;41.31
39681;BME280;26327;42.550;23.120;2023-05-21T10:02:47;92523.84;;;19.41;42.61
39681;BME280;26327;42.550;23.120;2023-05-21T10:05:14;92598.53;;;19.85;45.09
39681;BME280;26327;42.550;23.120;2023-05-21T10:07:48;92578.63;;;19.56;43.22
39681;BME280;26327;42.550;23.120;2023-05-21T10:10:15;92462.22;;;18.92;44.64
39681;BME280;26327;42.550;23.120;2023-05-21T10:12:45;92520.88;;;19.54;44.07
39681;BME280;26327;42.550;23.120;2023-05-21T10:15:15;92533.78;;;19.39;45.51
39681;BME280;26327;42.550;23.120;2023-05-21T10:17:41;92536.66;;;19.37;43.11
39681;BME280;26327;42.550;23.120;2023-05-21T10:20:09;92463.97;;;19.53;40.70
39681;BME280;26327;42.550;23.120;2023-05-21T10:22:36;92490.41;;;20.02;39.23
39681;BME280;26327;42.550;23.120;2023-05-21T10:25:01;92577.38;;;20.84;38.85
39681;BME280;26327;42.550;23.120;2023-05-21T10:27:29;92527.75;;;20.59;37.20
39681;BME280;26327;42.550;23.120;2023-05-21T10:29:56;92525.78;;;20.77;38.31
39681;BME280;26327;42.550;23.120;2023-05-21T10:32:27;92510.94;;;20.70;38.38
39681;BME280;26327;42.550;23.120;2023-05-21T10:34:53;92575.91;;;21.25;38.13
39681;BME280;26327;42.550;23.120;2023-05-21T10:37:20;92585.25;;;21.33;38.24
39681;BME280;26327;42.550;23.120;2023-05-21T10:39:47;92567.38;;;21.18;36.62
39681;BME280;26327;42.550;23.120;2023-05-21T11:01:30;92538.28;;;21.45;36.99
39681;BME280;26327;42.550;23.120;2023-05-21T11:03:58;92446.75;;;20.65;38.96
39681;BME280;26327;42.550;23.120;2023-05-21T11:06:24;92566.31;;;21.46;38.56
39681;BME280;26327;42.550;23.120;2023-05-21T11:08:50;92516.81;;;21.04;38.67
39681;BME280;26327;42.550;23.120;2023-05-21T11:14:28;92565.25;;;21.79;37.32
39681;BME280;26327;42.550;23.120;2023-05-21T11:16:56;92495.31;;;21.23;37.67
39681;BME280;26327;42.550;23.120;2023-05-21T11:19:32;92545.69;;;21.80;37.96
39681;BME280;26327;42.550;23.120;2023-05-21T11:21:58;92548.78;;;22.14;37.63
39681;BME280;26327;42.550;23.120;2023-05-21T11:24:23;92557.66;;;21.98;38.70
39681;BME280;26327;42.550;23.120;2023-05-21T11:29:31;92528.16;;;21.74;39.90
39681;BME280;26327;42.550;23.120;2023-05-21T11:32:05;92480.47;;;21.54;38.68
39681;BME280;26327;42.550;23.120;2023-05-21T11:34:44;92546.19;;;22.24;40.75
39681;BME280;26327;42.550;23.120;2023-05-21T11:39:48;92506.16;;;23.04;37.28
39681;BME280;26327;42.550;23.120;2023-05-21T11:42:33;92506.97;;;23.40;36.36
39681;BME280;26327;42.550;23.120;2023-05-21T11:45:01;92519.38;;;23.95;35.62
39681;BME280;26327;42.550;23.120;2023-05-21T11:47:27;92490.63;;;24.23;34.41
39681;BME280;26327;42.550;23.120;2023-05-21T11:49:54;92444.44;;;24.24;35.87
39681;BME280;26327;42.550;23.120;2023-05-21T11:52:20;92519.44;;;25.04;33.06
39681;BME280;26327;42.550;23.120;2023-05-21T11:54:47;92534.81;;;24.68;33.14
39681;BME280;26327;42.550;23.120;2023-05-21T11:57:16;92515.97;;;23.74;34.09
39681;BME280;26327;42.550;23.120;2023-05-21T11:59:47;92499.28;;;23.33;33.72
39681;BME280;26327;42.550;23.120;2023-05-21T12:02:14;92476.22;;;23.08;35.45
39681;BME280;26327;42.550;23.120;2023-05-21T12:04:44;92519.16;;;23.10;36.11
39681;BME280;26327;42.550;23.120;2023-05-21T12:07:10;92464.00;;;22.77;37.96
39681;BME280;26327;42.550;23.120;2023-05-21T12:09:47;92470.03;;;22.42;38.05
39681;BME280;26327;42.550;23.120;2023-05-21T12:12:15;92518.09;;;23.11;36.83
39681;BME280;26327;42.550;23.120;2023-05-21T12:14:44;92454.13;;;22.37;37.83
39681;BME280;26327;42.550;23.120;2023-05-21T12:17:10;92519.84;;;22.65;37.69
39681;BME280;26327;42.550;23.120;2023-05-21T12:19:38;92501.31;;;22.65;36.57
39681;BME280;26327;42.550;23.120;2023-05-21T12:22:04;92511.97;;;22.85;36.18
39681;BME280;26327;42.550;23.120;2023-05-21T12:24:30;92502.72;;;22.98;37.24
39681;BME280;26327;42.550;23.120;2023-05-21T12:26:57;92512.53;;;23.48;36.56
39681;BME280;26327;42.550;23.120;2023-05-21T12:29:30;92446.81;;;23.05;36.21
39681;BME280;26327;42.550;23.120;2023-05-21T12:32:00;92466.41;;;23.34;35.90
39681;BME280;26327;42.550;23.120;2023-05-21T12:34:45;92509.38;;;23.67;36.94
39681;BME280;26327;42.550;23.120;2023-05-21T12:39:49;92368.16;;;22.85;37.40
39681;BME280;26327;42.550;23.120;2023-05-21T12:42:16;92506.13;;;23.90;37.72
39681;BME280;26327;42.550;23.120;2023-05-21T12:44:47;92492.53;;;24.02;37.74
39681;BME280;26327;42.550;23.120;2023-05-21T12:47:13;92478.47;;;24.01;37.68
39681;BME280;26327;42.550;23.120;2023-05-21T12:49:41;92440.50;;;24.06;37.52
39681;BME280;26327;42.550;23.120;2023-05-21T12:52:09;92474.25;;;24.65;37.90
39681;BME280;26327;42.550;23.120;2023-05-21T12:54:36;92487.69;;;24.84;36.88
39681;BME280;26327;42.550;23.120;2023-05-21T12:57:17;92444.53;;;24.58;37.69
39681;BME280;26327;42.550;23.120;2023-05-21T13:02:40;92500.84;;;25.09;36.54
39681;BME280;26327;42.550;23.120;2023-05-21T13:05:07;92487.09;;;24.92;36.56
39681;BME280;26327;42.550;23.120;2023-05-21T13:07:35;92488.44;;;24.89;36.63
39681;BME280;26327;42.550;23.120;2023-05-21T13:10:01;92439.00;;;24.49;35.03
39681;BME280;26327;42.550;23.120;2023-05-21T13:12:28;92432.22;;;24.28;34.50
39681;BME280;26327;42.550;23.120;2023-05-21T13:14:55;92474.69;;;24.77;35.77
39681;BME280;26327;42.550;23.120;2023-05-21T13:17:21;92442.59;;;24.19;37.34
39681;BME280;26327;42.550;23.120;2023-05-21T13:20:12;92491.75;;;24.71;35.40
39681;BME280;26327;42.550;23.120;2023-05-21T13:22:41;92475.38;;;24.48;36.13
39681;BME280;26327;42.550;23.120;2023-05-21T13:25:10;92492.16;;;24.39;35.79
39681;BME280;26327;42.550;23.120;2023-05-21T13:27:37;92480.97;;;24.47;36.49